createdAt,value
2023-04-11T00:01:28.204Z,1.50
2023-04-11T00:03:54.592Z,1.58
2023-04-11T00:06:21.026Z,1.42
2023-04-11T00:08:47.392Z,1.08
2023-04-11T00:11:13.793Z,1.35
2023-04-11T00:13:42.162Z,2.58
2023-04-11T00:16:11.440Z,2.17
2023-04-11T00:18:37.833Z,2.22
2023-04-11T00:21:08.792Z,1.80
2023-04-11T00:23:35.165Z,2.00
2023-04-11T00:26:02.708Z,2.45
2023-04-11T00:28:34.409Z,2.95
2023-04-11T00:31:02.358Z,1.75
2023-04-11T00:33:29.856Z,1.60
2023-04-11T00:35:58.533Z,1.88
2023-04-11T00:38:26.528Z,1.90
2023-04-11T00:40:55.116Z,1.52
2023-04-11T00:43:24.365Z,2.45
2023-04-11T00:45:53.010Z,2.30
2023-04-11T00:48:22.962Z,2.47
2023-04-11T00:50:49.347Z,2.47
2023-04-11T00:53:15.989Z,2.42
2023-04-11T00:55:42.464Z,2.20
2023-04-11T00:58:11.242Z,1.85
2023-04-11T01:00:37.852Z,1.98
2023-04-11T01:03:04.798Z,1.95
2023-04-11T01:05:33.139Z,2.47
2023-04-11T01:08:02.659Z,2.53
2023-04-11T01:10:29.616Z,1.25
2023-04-11T01:13:00.297Z,2.55
2023-04-11T01:15:29.838Z,2.25
2023-04-11T01:17:59.984Z,1.50
2023-04-11T01:20:28.262Z,1.80
2023-04-11T01:22:56.496Z,1.65
2023-04-11T01:25:23.594Z,1.90
2023-04-11T01:27:50.055Z,1.58
2023-04-11T01:30:16.527Z,1.23
2023-04-11T01:32:44.745Z,1.83
2023-04-11T01:35:11.368Z,1.63
2023-04-11T01:37:40.133Z,1.50
2023-04-11T01:40:07.338Z,1.75
2023-04-11T01:42:34.437Z,1.92
2023-04-11T01:45:03.078Z,2.22
2023-04-11T01:47:29.580Z,1.35
2023-04-11T01:49:59.122Z,1.45
2023-04-11T01:52:32.356Z,1.17
2023-04-11T01:54:58.722Z,1.42
2023-04-11T01:57:25.066Z,1.88
2023-04-11T01:59:51.363Z,1.27
2023-04-11T02:02:17.884Z,1.17
2023-04-11T02:04:44.366Z,1.63
2023-04-11T02:07:10.764Z,1.30
2023-04-11T02:09:37.208Z,0.82
2023-04-11T02:12:05.343Z,1.05
2023-04-11T02:14:45.667Z,1.73
2023-04-11T02:17:17.203Z,1.13
2023-04-11T02:19:44.510Z,1.67
2023-04-11T02:22:15.993Z,1.25
2023-04-11T02:24:42.563Z,2.00
2023-04-11T02:27:10.745Z,0.75
2023-04-11T02:29:54.652Z,0.50
2023-04-11T02:32:21.130Z,1.05
2023-04-11T02:34:47.526Z,0.80
2023-04-11T02:37:17.564Z,1.08
2023-04-11T02:39:45.643Z,0.40
2023-04-11T02:42:12.559Z,0.50
2023-04-11T02:44:38.889Z,0.93
2023-04-11T02:47:07.878Z,0.50
2023-04-11T02:49:34.288Z,0.70
2023-04-11T02:52:00.639Z,0.80
2023-04-11T02:54:27.010Z,0.75
2023-04-11T02:56:53.401Z,0.82
2023-04-11T02:59:19.763Z,0.47
2023-04-11T03:01:47.391Z,0.65
2023-04-11T03:04:16.305Z,0.70
2023-04-11T03:06:42.618Z,0.60
2023-04-11T03:09:08.957Z,0.63
2023-04-11T03:11:35.309Z,0.50
2023-04-11T03:14:01.888Z,0.80
2023-04-11T03:16:28.337Z,1.05
2023-04-11T03:18:58.892Z,0.60
2023-04-11T03:21:28.105Z,0.85
2023-04-11T03:23:55.596Z,0.50
2023-04-11T03:26:24.229Z,0.93
2023-04-11T03:28:50.570Z,0.50
2023-04-11T03:31:19.660Z,1.25
2023-04-11T03:33:46.051Z,0.43
2023-04-11T03:36:16.837Z,1.10
2023-04-11T03:38:43.180Z,0.70
2023-04-11T03:41:15.279Z,0.52
2023-04-11T03:43:41.589Z,0.20
2023-04-11T03:46:07.986Z,0.50
2023-04-11T03:48:34.658Z,0.57
2023-04-11T03:51:01.104Z,0.52
2023-04-11T03:53:31.521Z,0.75
2023-04-11T03:55:57.893Z,0.45
2023-04-11T03:58:24.669Z,0.47
2023-04-11T04:01:02.164Z,0.73
2023-04-11T04:03:28.767Z,0.90
2023-04-11T04:05:56.574Z,1.05
2023-04-11T04:08:24.435Z,0.35
2023-04-11T04:10:50.780Z,0.57
2023-04-11T04:13:17.126Z,0.55
2023-04-11T04:15:43.488Z,0.90
2023-04-11T04:18:12.167Z,1.00
2023-04-11T04:20:38.506Z,1.20
2023-04-11T04:23:06.033Z,0.60
2023-04-11T04:25:32.424Z,0.88
2023-04-11T04:27:58.850Z,0.73
2023-04-11T04:30:25.219Z,0.40
2023-04-11T04:33:01.018Z,0.32
2023-04-11T04:35:28.959Z,0.45
2023-04-11T04:37:55.402Z,1.05
2023-04-11T04:40:21.950Z,0.82
2023-04-11T04:42:53.652Z,0.57
2023-04-11T04:45:20.009Z,0.90
2023-04-11T04:47:49.881Z,0.50
2023-04-11T04:50:24.749Z,0.82
2023-04-11T04:52:53.337Z,0.65
2023-04-11T04:55:19.812Z,1.25
2023-04-11T04:57:50.024Z,0.40
2023-04-11T05:00:18.116Z,0.55
2023-04-11T05:02:58.195Z,0.95
2023-04-11T05:05:30.590Z,0.47
2023-04-11T05:07:59.787Z,0.60
2023-04-11T05:10:26.195Z,0.70
2023-04-11T05:12:52.782Z,0.40
2023-04-11T05:15:19.131Z,0.20
2023-04-11T05:17:48.392Z,0.47
2023-04-11T05:20:22.357Z,0.70
2023-04-11T05:22:51.171Z,0.38
2023-04-11T05:25:17.655Z,0.35
2023-04-11T05:27:44.407Z,0.60
2023-04-11T05:30:11.453Z,0.30
2023-04-11T05:32:37.801Z,0.55
2023-04-11T05:35:04.363Z,1.00
2023-04-11T05:37:30.704Z,1.02
2023-04-11T05:39:57.045Z,0.22
2023-04-11T05:42:24.576Z,0.50
2023-04-11T05:44:51.264Z,0.43
2023-04-11T05:47:17.653Z,0.68
2023-04-11T05:49:44.029Z,0.32
2023-04-11T05:52:13.498Z,0.75
2023-04-11T05:54:42.735Z,0.38
2023-04-11T05:57:09.126Z,0.68
2023-04-11T05:59:36.474Z,1.27
2023-04-11T06:02:06.715Z,0.68
2023-04-11T06:04:33.416Z,0.32
2023-04-11T06:07:00.268Z,0.85
2023-04-11T06:09:26.630Z,0.60
2023-04-11T06:11:53.019Z,0.22
2023-04-11T06:14:19.461Z,0.57
2023-04-11T06:16:47.379Z,0.40
2023-04-11T06:19:13.666Z,0.40
2023-04-11T06:21:40.134Z,0.82
2023-04-11T06:24:10.860Z,0.73
2023-04-11T06:26:37.314Z,0.73
2023-04-11T06:29:05.540Z,0.57
2023-04-11T06:31:35.783Z,0.75
2023-04-11T06:34:02.607Z,0.60
2023-04-11T06:36:29.894Z,0.90
2023-04-11T06:38:57.281Z,0.77
2023-04-11T06:41:26.412Z,0.63
2023-04-11T06:43:52.793Z,0.45
2023-04-11T06:46:19.261Z,0.88
2023-04-11T06:48:45.638Z,0.43
2023-04-11T06:51:11.978Z,0.70
2023-04-11T06:53:38.548Z,1.05
2023-04-11T06:56:05.277Z,1.35
2023-04-11T06:58:31.614Z,0.63
2023-04-11T07:01:05.673Z,0.60
2023-04-11T07:03:35.535Z,0.60
2023-04-11T07:06:02.070Z,1.00
2023-04-11T07:08:30.960Z,0.60
2023-04-11T07:10:57.289Z,0.32
2023-04-11T07:13:25.446Z,1.02
2023-04-11T07:15:51.745Z,0.68
2023-04-11T07:18:19.705Z,0.63
2023-04-11T07:20:47.949Z,0.50
2023-04-11T07:23:21.842Z,0.75
2023-04-11T07:25:52.617Z,0.60
2023-04-11T07:28:22.292Z,0.50
2023-04-11T07:30:53.307Z,0.70
2023-04-11T07:33:19.729Z,0.70
2023-04-11T07:35:46.178Z,0.68
2023-04-11T07:38:15.583Z,0.68
2023-04-11T07:40:41.967Z,0.77
2023-04-11T07:43:10.792Z,0.57
2023-04-11T07:45:38.551Z,0.85
2023-04-11T07:48:06.119Z,0.35
2023-04-11T07:50:33.679Z,0.35
2023-04-11T07:53:00.168Z,0.50
2023-04-11T07:55:27.028Z,0.55
2023-04-11T07:57:55.826Z,1.17
2023-04-11T08:00:22.926Z,0.60
2023-04-11T08:02:52.348Z,0.38
2023-04-11T08:05:18.944Z,0.80
2023-04-11T08:07:45.465Z,0.88
2023-04-11T08:10:11.992Z,0.80
2023-04-11T08:12:39.700Z,0.70
2023-04-11T08:15:06.455Z,0.75
2023-04-11T08:17:33.159Z,0.50
2023-04-11T08:20:02.577Z,0.55
2023-04-11T08:22:34.722Z,0.22
2023-04-11T08:25:05.756Z,0.32
2023-04-11T08:27:32.148Z,0.55
2023-04-11T08:29:58.460Z,0.60
2023-04-11T08:32:25.373Z,0.50
2023-04-11T08:34:51.774Z,0.40
2023-04-11T08:37:18.348Z,0.60
2023-04-11T08:39:44.951Z,0.63
2023-04-11T08:42:26.959Z,0.32
2023-04-11T08:45:08.723Z,0.35
2023-04-11T08:47:37.957Z,0.45
2023-04-11T08:50:05.651Z,0.60
2023-04-11T08:52:42.496Z,0.75
2023-04-11T08:55:10.464Z,0.60
2023-04-11T08:57:44.286Z,1.05
2023-04-11T09:00:11.154Z,0.93
2023-04-11T09:02:56.755Z,0.70
2023-04-11T09:05:30.252Z,0.28
2023-04-11T09:08:02.970Z,0.32
2023-04-11T09:10:33.224Z,0.28
2023-04-11T09:13:13.278Z,0.47
2023-04-11T09:15:42.702Z,0.28
2023-04-11T09:18:42.119Z,0.40
2023-04-11T09:21:10.844Z,0.98
2023-04-11T09:23:38.229Z,0.32
2023-04-11T09:26:12.310Z,0.55
2023-04-11T09:28:46.332Z,0.40
2023-04-11T09:31:14.890Z,0.17
2023-04-11T09:33:53.644Z,0.55
2023-04-11T09:36:23.072Z,0.30
2023-04-11T09:38:49.793Z,0.10
2023-04-11T09:41:31.491Z,0.73
2023-04-11T09:44:01.517Z,0.60
2023-04-11T09:46:28.216Z,0.40
2023-04-11T09:49:01.034Z,0.47
2023-04-11T09:51:36.630Z,0.32
2023-04-11T09:54:06.600Z,0.63
2023-04-11T09:56:33.440Z,0.35
2023-04-11T09:59:00.855Z,0.43
2023-04-11T10:01:29.893Z,0.50
2023-04-11T10:03:58.167Z,0.75
2023-04-11T10:06:31.176Z,0.30
2023-04-11T10:09:08.288Z,0.43
2023-04-11T10:11:42.747Z,0.65
2023-04-11T10:14:09.341Z,0.50
2023-04-11T10:17:13.301Z,0.55
2023-04-11T10:19:39.890Z,0.45
2023-04-11T10:22:06.349Z,0.32
2023-04-11T10:24:32.634Z,0.25
2023-04-11T10:27:08.501Z,0.30
2023-04-11T10:29:52.909Z,0.35
2023-04-11T10:32:23.501Z,0.30
2023-04-11T10:34:52.621Z,0.35
2023-04-11T10:37:33.973Z,0.50
2023-04-11T10:40:04.683Z,0.40
2023-04-11T10:42:40.564Z,0.30
2023-04-11T10:45:16.014Z,0.30
2023-04-11T10:47:42.683Z,0.43
2023-04-11T10:50:30.154Z,0.20
2023-04-11T10:52:58.926Z,0.45
2023-04-11T10:55:28.095Z,0.63
2023-04-11T10:58:16.405Z,0.35
2023-04-11T11:00:48.655Z,0.35
2023-04-11T11:03:28.059Z,0.22
2023-04-11T11:06:11.566Z,0.30
2023-04-11T11:08:39.646Z,0.93
2023-04-11T11:11:07.776Z,0.60
2023-04-11T11:13:51.351Z,0.63
2023-04-11T11:16:23.865Z,0.32
2023-04-11T11:18:55.181Z,0.95
2023-04-11T11:21:27.597Z,0.35
2023-04-11T11:23:57.288Z,0.75
2023-04-11T11:26:39.812Z,0.55
2023-04-11T11:31:46.948Z,0.82
2023-04-11T11:34:23.674Z,0.50
2023-04-11T11:36:51.219Z,0.35
2023-04-11T11:39:18.716Z,1.23
2023-04-11T11:41:48.665Z,0.52
2023-04-11T11:44:25.882Z,0.50
2023-04-11T11:47:06.266Z,0.40
2023-04-11T11:49:53.157Z,0.63
2023-04-11T11:52:39.677Z,0.47
2023-04-11T11:55:10.364Z,0.60
2023-04-11T11:57:37.559Z,0.80
2023-04-11T12:00:04.687Z,0.88
2023-04-11T12:02:34.540Z,0.43
2023-04-11T12:05:06.439Z,1.00
2023-04-11T12:07:34.364Z,0.65
2023-04-11T12:10:01.854Z,0.90
2023-04-11T12:12:35.442Z,0.90
2023-04-11T12:15:12.046Z,0.60
2023-04-11T12:17:42.470Z,0.80
2023-04-11T12:20:10.219Z,1.80
2023-04-11T12:22:38.209Z,0.88
2023-04-11T12:25:06.734Z,0.38
2023-04-11T12:27:34.801Z,0.50
2023-04-11T12:30:01.393Z,0.90
2023-04-11T12:32:28.188Z,0.60
2023-04-11T12:35:01.319Z,0.40
2023-04-11T12:37:27.709Z,0.47
2023-04-11T12:39:54.870Z,0.90
2023-04-11T12:42:26.919Z,0.40
2023-04-11T12:44:53.908Z,0.30
2023-04-11T12:47:20.357Z,0.95
2023-04-11T12:49:46.718Z,0.40
2023-04-11T12:52:13.009Z,0.20
2023-04-11T12:54:39.350Z,0.50
2023-04-11T12:57:05.795Z,0.98
2023-04-11T12:59:32.593Z,0.75
2023-04-11T13:02:01.544Z,0.45
2023-04-11T13:04:28.172Z,0.40
2023-04-11T13:06:54.625Z,0.63
2023-04-11T13:09:23.974Z,0.50
2023-04-11T13:11:50.334Z,0.45
2023-04-11T13:14:16.645Z,0.52
2023-04-11T13:16:43.033Z,0.45
2023-04-11T13:19:11.621Z,0.50
2023-04-11T13:21:37.972Z,0.50
2023-04-11T13:24:07.051Z,0.57
2023-04-11T13:26:36.525Z,0.50
2023-04-11T13:29:02.890Z,0.30
2023-04-11T13:31:30.309Z,0.70
2023-04-11T13:34:02.408Z,0.70
2023-04-11T13:36:29.111Z,0.40
2023-04-11T13:38:56.711Z,0.70
2023-04-11T13:41:25.713Z,0.88
2023-04-11T13:43:52.602Z,0.20
2023-04-11T13:46:21.565Z,0.30
2023-04-11T13:48:50.646Z,0.43
2023-04-11T13:51:17.008Z,0.73
2023-04-11T13:53:43.383Z,0.40
2023-04-11T13:56:09.760Z,0.55
2023-04-11T13:58:36.084Z,1.00
2023-04-11T14:01:02.420Z,0.30
2023-04-11T14:03:31.510Z,0.73
2023-04-11T14:05:58.188Z,0.25
2023-04-11T14:08:24.563Z,0.80
2023-04-11T14:10:50.865Z,0.65
2023-04-11T14:13:17.229Z,0.35
2023-04-11T14:15:45.126Z,0.50
2023-04-11T14:18:13.905Z,0.40
2023-04-11T14:20:43.492Z,0.47
2023-04-11T14:23:10.220Z,0.68
2023-04-11T14:25:38.745Z,0.20
2023-04-11T14:28:08.197Z,0.30
2023-04-11T14:30:34.769Z,0.50
2023-04-11T14:33:01.571Z,0.52
2023-04-11T14:35:30.677Z,0.88
2023-04-11T14:37:57.513Z,0.50
2023-04-11T14:40:25.039Z,0.98
2023-04-11T14:42:53.664Z,1.05
2023-04-11T14:45:20.229Z,0.30
2023-04-11T14:47:46.672Z,0.20
2023-04-11T14:50:13.532Z,0.77
2023-04-11T14:52:39.960Z,0.30
2023-04-11T14:55:09.030Z,0.70
2023-04-11T14:57:44.283Z,0.70
2023-04-11T15:00:12.512Z,0.47
2023-04-11T15:02:38.861Z,0.60
2023-04-11T15:05:05.370Z,0.70
2023-04-11T15:07:31.683Z,0.57
2023-04-11T15:09:58.183Z,0.30
2023-04-11T15:12:26.979Z,0.17
2023-04-11T15:14:53.573Z,0.60
2023-04-11T15:17:20.085Z,0.30
2023-04-11T15:19:46.432Z,0.50
2023-04-11T15:22:12.786Z,0.50
2023-04-11T15:24:41.700Z,0.40
2023-04-11T15:27:08.101Z,0.40
2023-04-11T15:29:34.506Z,0.60
2023-04-11T15:32:02.838Z,0.30
2023-04-11T15:34:29.213Z,0.30
2023-04-11T15:36:57.888Z,0.32
2023-04-11T15:39:24.213Z,0.45
2023-04-11T15:41:51.704Z,0.60
2023-04-11T15:44:18.044Z,0.70
2023-04-11T15:46:46.022Z,0.57
2023-04-11T15:49:22.264Z,0.38
2023-04-11T15:51:48.616Z,0.43
2023-04-11T15:54:14.947Z,0.30
2023-04-11T15:56:43.654Z,0.35
2023-04-11T15:59:09.965Z,0.30
2023-04-11T16:01:36.313Z,0.20
2023-04-11T16:04:03.274Z,0.20
2023-04-11T16:06:30.102Z,0.40
2023-04-11T16:08:58.584Z,0.52
2023-04-11T16:11:27.323Z,0.50
2023-04-11T16:14:07.757Z,0.52
2023-04-11T16:16:34.177Z,1.27
2023-04-11T16:19:00.533Z,0.55
2023-04-11T16:21:29.604Z,0.65
2023-04-11T16:23:56.183Z,0.68
2023-04-11T16:26:22.712Z,1.73
2023-04-11T16:28:51.900Z,0.32
2023-04-11T16:31:18.333Z,0.50
2023-04-11T16:33:44.720Z,0.60
2023-04-11T16:36:12.361Z,0.60
2023-04-11T16:38:38.767Z,0.47
2023-04-11T16:41:05.466Z,0.93
2023-04-11T16:43:37.741Z,0.52
2023-04-11T16:46:04.322Z,0.50
2023-04-11T16:48:30.744Z,0.82
2023-04-11T16:51:02.565Z,0.52
2023-04-11T16:53:29.624Z,0.43
2023-04-11T16:55:56.874Z,0.50
2023-04-11T16:58:23.482Z,0.65
2023-04-11T17:00:52.403Z,0.38
2023-04-11T17:03:20.577Z,0.32
2023-04-11T17:05:50.708Z,0.65
2023-04-11T17:08:22.832Z,0.52
2023-04-11T17:10:52.811Z,0.30
2023-04-11T17:13:19.320Z,0.60
2023-04-11T17:15:46.813Z,0.80
2023-04-11T17:18:17.535Z,0.60
2023-04-11T17:20:45.954Z,0.70
2023-04-11T17:23:14.531Z,0.43
2023-04-11T17:25:43.701Z,0.75
2023-04-11T17:28:10.194Z,0.57
2023-04-11T17:30:38.081Z,0.73
2023-04-11T17:33:05.694Z,0.57
2023-04-11T17:35:32.076Z,0.70
2023-04-11T17:37:58.434Z,0.38
2023-04-11T17:40:25.036Z,0.75
2023-04-11T17:42:53.940Z,0.22
2023-04-11T17:45:20.507Z,0.50
2023-04-11T17:47:49.653Z,0.55
2023-04-11T17:50:17.672Z,0.32
2023-04-11T17:52:45.836Z,0.60
2023-04-11T17:55:14.635Z,0.52
2023-04-11T17:57:42.823Z,0.57
2023-04-11T18:00:10.286Z,0.73
2023-04-11T18:02:39.671Z,0.80
2023-04-11T18:05:16.449Z,0.65
2023-04-11T18:07:49.563Z,1.30
2023-04-11T18:10:17.201Z,0.50
2023-04-11T18:12:47.851Z,0.60
2023-04-11T18:15:15.075Z,0.40
2023-04-11T18:17:47.311Z,0.80
2023-04-11T18:20:14.892Z,0.43
2023-04-11T18:22:44.632Z,0.60
2023-04-11T18:25:12.214Z,1.25
2023-04-11T18:27:40.548Z,2.03
2023-04-11T18:30:13.298Z,2.85
2023-04-11T18:32:45.099Z,2.70
2023-04-11T18:35:14.273Z,1.98
2023-04-11T18:37:41.765Z,1.80
2023-04-11T18:40:09.752Z,1.27
2023-04-11T18:42:36.446Z,1.00
2023-04-11T18:45:02.981Z,1.60
2023-04-11T18:47:29.593Z,1.23
2023-04-11T18:49:56.043Z,1.40
2023-04-11T18:52:31.637Z,1.38
2023-04-11T18:55:00.667Z,1.08
2023-04-11T18:57:29.164Z,0.75
2023-04-11T18:59:57.099Z,1.42
2023-04-11T19:02:24.445Z,1.55
2023-04-11T19:04:53.456Z,1.52
2023-04-11T19:07:20.505Z,1.33
2023-04-11T19:09:47.815Z,0.88
2023-04-11T19:12:14.162Z,1.27
2023-04-11T19:14:43.401Z,1.65
2023-04-11T19:17:10.854Z,2.30
2023-04-11T19:19:37.193Z,2.20
2023-04-11T19:22:03.536Z,1.30
2023-04-11T19:24:29.870Z,1.98
2023-04-11T19:26:59.771Z,1.77
2023-04-11T19:29:26.184Z,1.40
2023-04-11T19:31:53.854Z,1.50
2023-04-11T19:34:20.266Z,2.33
2023-04-11T19:36:46.601Z,1.23
2023-04-11T19:39:12.936Z,1.92
2023-04-11T19:41:46.679Z,1.70
2023-04-11T19:44:13.186Z,1.73
2023-04-11T19:46:39.956Z,2.28
2023-04-11T19:49:06.410Z,1.92
2023-04-11T19:51:32.833Z,1.92
2023-04-11T19:54:01.750Z,2.17
2023-04-11T19:56:32.831Z,2.05
2023-04-11T19:58:59.152Z,2.28
2023-04-11T20:01:28.573Z,1.70
2023-04-11T20:03:55.065Z,1.65
2023-04-11T20:06:21.530Z,1.60
2023-04-11T20:08:47.956Z,0.93
2023-04-11T20:11:18.482Z,1.40
2023-04-11T20:13:47.655Z,1.33
2023-04-11T20:16:16.915Z,1.23
2023-04-11T20:18:43.270Z,0.88
2023-04-11T20:21:09.566Z,0.90
2023-04-11T20:23:35.953Z,0.88
2023-04-11T20:26:05.086Z,1.20
2023-04-11T20:28:31.453Z,1.20
2023-04-11T20:31:00.951Z,1.02
2023-04-11T20:33:27.443Z,1.00
2023-04-11T20:35:54.549Z,0.70
2023-04-11T20:38:20.932Z,0.93
2023-04-11T20:40:53.983Z,0.52
2023-04-11T20:43:20.329Z,1.35
2023-04-11T20:45:46.663Z,0.73
2023-04-11T20:48:13.181Z,1.15
2023-04-11T20:50:42.157Z,1.13
2023-04-11T20:53:08.488Z,1.23
2023-04-11T20:55:34.795Z,1.00
2023-04-11T20:58:01.141Z,0.70
2023-04-11T21:00:27.512Z,1.42
2023-04-11T21:02:54.192Z,0.73
2023-04-11T21:05:20.958Z,1.02
2023-04-11T21:07:49.865Z,0.82
2023-04-11T21:10:16.219Z,0.70
2023-04-11T21:12:42.796Z,1.00
2023-04-11T21:15:09.647Z,0.90
2023-04-11T21:17:36.140Z,0.90
2023-04-11T21:20:04.416Z,0.60
2023-04-11T21:22:30.799Z,0.90
2023-04-11T21:24:58.619Z,0.85
2023-04-11T21:27:33.214Z,0.85
2023-04-11T21:30:02.206Z,0.90
2023-04-11T21:32:28.571Z,1.02
2023-04-11T21:34:54.888Z,0.90
2023-04-11T21:37:21.306Z,0.65
2023-04-11T21:39:49.998Z,0.80
2023-04-11T21:42:16.971Z,0.98
2023-04-11T21:44:43.332Z,0.75
2023-04-11T21:47:12.306Z,0.95
2023-04-11T21:49:38.735Z,1.48
2023-04-11T21:52:10.877Z,1.00
2023-04-11T21:54:41.858Z,1.40
2023-04-11T21:57:08.204Z,1.13
2023-04-11T21:59:35.014Z,1.40
2023-04-11T22:02:02.340Z,0.88
2023-04-11T22:04:29.517Z,1.25
2023-04-11T22:06:58.428Z,1.20
2023-04-11T22:09:24.822Z,1.27
2023-04-11T22:11:53.680Z,1.02
2023-04-11T22:14:20.066Z,0.75
2023-04-11T22:16:46.546Z,1.10
2023-04-11T22:19:12.883Z,0.98
2023-04-11T22:21:45.423Z,0.90
2023-04-11T22:24:15.148Z,1.20
2023-04-11T22:26:41.528Z,0.82
2023-04-11T22:29:07.929Z,1.27
2023-04-11T22:31:34.898Z,1.27
2023-04-11T22:34:01.337Z,1.30
2023-04-11T22:36:31.582Z,0.90
2023-04-11T22:38:57.914Z,2.63
2023-04-11T22:41:24.361Z,0.80
2023-04-11T22:43:51.883Z,1.75
2023-04-11T22:46:18.311Z,0.75
2023-04-11T22:48:47.508Z,1.13
2023-04-11T22:51:16.582Z,1.55
2023-04-11T22:53:42.952Z,1.20
2023-04-11T22:56:12.344Z,1.10
2023-04-11T22:58:38.852Z,0.60
2023-04-11T23:01:10.364Z,1.02
2023-04-11T23:03:36.721Z,1.40
2023-04-11T23:06:05.499Z,1.60
2023-04-11T23:08:31.836Z,1.20
2023-04-11T23:10:58.593Z,1.27
2023-04-11T23:13:25.576Z,1.15
2023-04-11T23:15:53.185Z,1.23
2023-04-11T23:18:37.258Z,1.70
2023-04-11T23:21:04.125Z,0.63
2023-04-11T23:23:30.455Z,2.22
2023-04-11T23:25:56.781Z,0.82
2023-04-11T23:28:23.186Z,1.83
2023-04-11T23:30:49.637Z,1.63
2023-04-11T23:33:16.055Z,1.33
2023-04-11T23:35:42.508Z,1.38
2023-04-11T23:38:13.786Z,1.20
2023-04-11T23:40:40.117Z,1.60
2023-04-11T23:43:06.394Z,0.95
2023-04-11T23:45:34.154Z,1.40
2023-04-11T23:48:00.587Z,1.33
2023-04-11T23:50:28.135Z,1.30
2023-04-11T23:52:54.491Z,1.17
2023-04-11T23:55:20.902Z,0.90
2023-04-11T23:57:51.490Z,1.33
